Time;durP1;ratioP1;P1;durP2;ratioP2;P2;SDS_P1;SDS_P2;PMS_P1;PMS_P2;Temp;Humidity;BMP_temperature;BMP_pressure;BME280_temperature;BME280_humidity;BME280_pressure;Samples;Min_cycle;Max_cycle;Signal;HPM_P1;HPM_P2
2022/07/08 00:00:41;;;;;;;6.60;2.33;;;16.40;99.90;;;;;;5079235;28;20308;-70
2022/07/08 00:03:07;;;;;;;8.43;2.45;;;16.30;99.90;;;;;;5078547;28;20064;-69
2022/07/08 00:05:33;;;;;;;8.00;2.45;;;16.20;99.90;;;;;;5078309;28;20044;-69
2022/07/08 00:07:58;;;;;;;5.25;1.90;;;16.20;99.90;;;;;;5061497;28;20421;-69
2022/07/08 00:10:25;;;;;;;7.60;2.67;;;16.10;99.90;;;;;;5077931;28;20408;-69
2022/07/08 00:12:51;;;;;;;5.38;2.38;;;16.10;99.90;;;;;;5078665;28;20361;-69
2022/07/08 00:15:17;;;;;;;8.32;2.28;;;16.10;99.90;;;;;;5078584;28;20041;-69
2022/07/08 00:17:43;;;;;;;8.32;2.42;;;16.10;99.90;;;;;;5077926;28;20137;-69
2022/07/08 00:20:09;;;;;;;7.65;2.30;;;16.00;99.90;;;;;;5077732;28;20043;-69
2022/07/08 00:22:36;;;;;;;11.38;2.78;;;16.00;99.90;;;;;;5077883;28;20329;-69
2022/07/08 00:25:03;;;;;;;6.68;2.40;;;15.90;99.90;;;;;;5077671;28;20039;-69
2022/07/08 00:27:29;;;;;;;7.20;2.30;;;15.90;99.90;;;;;;5077585;28;20033;-68
2022/07/08 00:29:55;;;;;;;4.20;2.30;;;15.90;99.90;;;;;;5078441;28;20031;-69
2022/07/08 00:32:21;;;;;;;6.45;2.00;;;15.90;99.90;;;;;;5078797;28;20123;-68
2022/07/08 00:34:46;;;;;;;8.68;2.72;;;15.80;99.90;;;;;;5078187;28;20135;-68
2022/07/08 00:37:12;;;;;;;6.03;2.17;;;15.80;99.90;;;;;;5077650;28;20032;-69
2022/07/08 00:39:38;;;;;;;10.35;2.55;;;15.80;99.90;;;;;;5077492;28;20032;-69
2022/07/08 00:42:05;;;;;;;9.48;2.45;;;15.70;99.90;;;;;;5078051;28;20043;-69
2022/07/08 00:44:31;;;;;;;8.93;2.63;;;15.70;99.90;;;;;;5077682;28;20111;-69
2022/07/08 00:46:57;;;;;;;9.00;2.60;;;15.60;99.90;;;;;;5078166;28;20277;-69
2022/07/08 00:49:23;;;;;;;7.47;2.63;;;15.70;99.90;;;;;;5078124;28;20080;-69
2022/07/08 00:51:49;;;;;;;7.13;2.22;;;15.70;99.90;;;;;;5078174;28;20074;-69
2022/07/08 00:54:18;;;;;;;8.57;2.70;;;15.70;99.90;;;;;;5077649;28;20036;-69
2022/07/08 00:56:43;;;;;;;7.88;2.10;;;15.70;99.90;;;;;;5078220;28;20039;-69
2022/07/08 00:59:10;;;;;;;6.38;2.80;;;15.70;99.90;;;;;;5077820;28;20024;-69
2022/07/08 01:01:36;;;;;;;6.25;2.50;;;15.60;99.90;;;;;;5077114;28;20039;-69
2022/07/08 01:04:03;;;;;;;8.25;2.38;;;15.60;99.90;;;;;;5077670;28;20037;-69
2022/07/08 01:06:29;;;;;;;6.70;2.83;;;15.60;99.90;;;;;;5076872;28;20044;-69
2022/07/08 01:08:55;;;;;;;5.05;2.35;;;15.50;99.90;;;;;;5077565;28;20351;-69
2022/07/08 01:11:21;;;;;;;8.02;2.63;;;15.50;99.90;;;;;;5060409;28;20124;-68
2022/07/08 01:13:47;;;;;;;8.10;2.65;;;15.50;99.90;;;;;;5076623;28;20032;-68
2022/07/08 01:16:14;;;;;;;7.35;2.63;;;15.50;99.90;;;;;;5077355;28;20036;-68
2022/07/08 01:18:41;;;;;;;5.82;2.13;;;15.40;99.90;;;;;;5076979;28;20020;-68
2022/07/08 01:21:07;;;;;;;6.57;2.53;;;15.50;99.90;;;;;;5077503;28;20277;-68
2022/07/08 01:23:33;;;;;;;7.28;2.55;;;15.40;99.90;;;;;;5077460;28;20415;-69
2022/07/08 01:26:07;;;;;;;5.95;2.25;;;15.30;99.90;;;;;;5077200;28;20025;-69
2022/07/08 01:28:32;;;;;;;7.95;2.78;;;15.30;99.90;;;;;;5076850;28;20036;-69
2022/07/08 01:30:58;;;;;;;9.00;2.83;;;15.30;99.90;;;;;;5077330;28;20035;-69
2022/07/08 01:33:24;;;;;;;8.93;2.53;;;15.30;99.90;;;;;;5076362;28;20427;-69
2022/07/08 01:35:50;;;;;;;7.35;2.58;;;15.40;99.90;;;;;;5076392;28;20101;-69
2022/07/08 01:38:16;;;;;;;8.35;2.58;;;15.30;99.90;;;;;;5076928;28;20115;-69
2022/07/08 01:40:42;;;;;;;5.88;2.65;;;15.20;99.90;;;;;;5077804;28;20035;-69
2022/07/08 01:43:07;;;;;;;7.50;2.63;;;15.30;99.90;;;;;;5076251;28;20091;-68
2022/07/08 01:45:34;;;;;;;7.38;2.42;;;15.20;99.90;;;;;;5076182;28;20032;-69
2022/07/08 01:47:59;;;;;;;8.15;2.58;;;15.20;99.90;;;;;;5076816;28;20101;-69
2022/07/08 01:50:25;;;;;;;11.38;3.15;;;15.10;99.90;;;;;;5077301;28;20037;-68
2022/07/08 01:52:51;;;;;;;9.70;2.97;;;15.20;99.90;;;;;;5077352;28;20032;-69
2022/07/08 01:55:17;;;;;;;11.85;2.97;;;15.20;99.90;;;;;;5059189;28;20427;-69
2022/07/08 01:57:42;;;;;;;8.52;3.10;;;15.20;99.90;;;;;;5075976;28;20423;-69
2022/07/08 02:00:09;;;;;;;10.10;2.70;;;15.30;99.90;;;;;;5076783;28;20115;-69
2022/07/08 02:02:38;;;;;;;10.30;2.60;;;15.30;99.90;;;;;;5077370;28;20041;-69
2022/07/08 02:05:04;;;;;;;9.05;3.28;;;15.20;99.90;;;;;;5076715;28;20031;-69
2022/07/08 02:07:31;;;;;;;12.15;2.85;;;15.20;99.90;;;;;;5076656;28;20037;-69
2022/07/08 02:09:57;;;;;;;7.10;2.78;;;15.20;99.90;;;;;;5076525;28;20048;-69
2022/07/08 02:12:23;;;;;;;8.23;2.63;;;15.00;99.90;;;;;;5076812;28;20350;-69
2022/07/08 02:14:55;;;;;;;9.05;2.75;;;14.80;99.90;;;;;;5076532;28;20110;-69
2022/07/08 02:17:22;;;;;;;9.45;2.60;;;14.90;99.90;;;;;;5075771;28;20051;-69
2022/07/08 02:19:49;;;;;;;9.50;3.40;;;15.00;99.90;;;;;;5076459;28;20096;-69
2022/07/08 02:22:15;;;;;;;9.20;2.88;;;15.00;99.90;;;;;;5076576;28;20107;-69
2022/07/08 02:24:41;;;;;;;10.88;2.55;;;14.90;99.90;;;;;;5078006;28;20036;-69
2022/07/08 02:27:07;;;;;;;8.48;2.78;;;14.80;99.90;;;;;;5079909;28;20404;-69
2022/07/08 02:29:33;;;;;;;6.43;2.30;;;14.70;99.90;;;;;;5080418;28;20039;-69
2022/07/08 02:31:59;;;;;;;9.77;2.88;;;14.60;99.90;;;;;;5080852;28;20039;-68
2022/07/08 02:34:25;;;;;;;6.50;2.33;;;14.60;99.90;;;;;;5079957;28;20456;-68
2022/07/08 02:36:51;;;;;;;8.93;2.55;;;14.50;99.90;;;;;;5062896;28;20033;-69
2022/07/08 02:39:17;;;;;;;7.68;2.80;;;14.50;99.90;;;;;;5062925;28;20311;-69
2022/07/08 02:41:43;;;;;;;8.48;2.63;;;14.40;99.90;;;;;;5079870;28;20021;-69
2022/07/08 02:44:09;;;;;;;7.47;2.92;;;14.40;99.90;;;;;;5080435;28;20116;-68
2022/07/08 02:46:36;;;;;;;11.38;3.00;;;14.40;99.90;;;;;;5080779;28;20031;-69
2022/07/08 02:49:02;;;;;;;9.13;3.13;;;14.40;99.90;;;;;;5080254;28;20036;-69
2022/07/08 02:51:28;;;;;;;9.10;2.83;;;14.40;99.90;;;;;;5079577;28;20032;-69
2022/07/08 02:53:54;;;;;;;12.75;3.65;;;14.30;99.90;;;;;;5080289;28;20039;-69
2022/07/08 02:56:20;;;;;;;6.18;2.45;;;14.30;99.90;;;;;;5079214;28;20051;-69
2022/07/08 02:58:47;;;;;;;11.57;4.05;;;14.30;99.90;;;;;;5079946;28;20381;-69
2022/07/08 03:01:13;;;;;;;8.60;3.38;;;14.30;99.90;;;;;;5079255;28;20021;-69
2022/07/08 03:03:38;;;;;;;9.05;2.97;;;14.30;99.90;;;;;;5080056;28;20033;-69
2022/07/08 03:06:04;;;;;;;9.23;2.95;;;14.20;99.90;;;;;;5079200;28;20029;-69
2022/07/08 03:08:30;;;;;;;7.45;3.50;;;14.20;99.90;;;;;;5079113;28;20414;-70
2022/07/08 03:10:56;;;;;;;10.18;2.95;;;14.10;99.90;;;;;;5079249;28;20036;-69
2022/07/08 03:13:21;;;;;;;11.18;3.45;;;14.00;99.90;;;;;;5079313;28;20086;-69
2022/07/08 03:15:48;;;;;;;9.15;3.33;;;14.00;99.90;;;;;;5079883;28;20058;-69
2022/07/08 03:18:13;;;;;;;9.27;3.05;;;14.10;99.90;;;;;;5079011;28;20054;-69
2022/07/08 03:20:39;;;;;;;9.38;3.28;;;14.20;99.90;;;;;;5078887;28;20029;-69
2022/07/08 03:23:05;;;;;;;7.57;3.40;;;14.10;99.90;;;;;;5079505;28;20396;-69
2022/07/08 03:25:33;;;;;;;7.60;3.42;;;14.00;99.90;;;;;;5079658;28;20032;-69
2022/07/08 03:27:59;;;;;;;8.98;2.97;;;14.00;99.90;;;;;;5079289;28;20037;-69
2022/07/08 03:30:25;;;;;;;11.57;3.63;;;14.00;99.90;;;;;;5078593;28;20400;-69
2022/07/08 03:32:51;;;;;;;9.90;3.42;;;14.00;99.90;;;;;;5079226;28;20032;-69
2022/07/08 03:35:17;;;;;;;14.23;3.80;;;14.00;99.90;;;;;;5078327;28;20028;-69
2022/07/08 03:37:44;;;;;;;10.43;3.20;;;14.00;99.90;;;;;;5078118;28;20070;-69
2022/07/08 03:42:56;;;;;;;9.93;3.63;;;13.80;99.90;;;;;;5079127;28;20074;-69
2022/07/08 03:45:23;;;;;;;9.43;3.55;;;13.80;99.90;;;;;;5079157;28;20028;-69
2022/07/08 03:47:49;;;;;;;10.35;3.80;;;13.80;99.90;;;;;;5079017;28;20297;-69
2022/07/08 03:50:15;;;;;;;10.52;4.18;;;13.90;99.90;;;;;;5078265;28;20033;-69
2022/07/08 03:52:41;;;;;;;9.73;3.50;;;13.90;99.90;;;;;;5078917;28;20086;-69
2022/07/08 03:55:07;;;;;;;13.00;3.90;;;13.90;99.90;;;;;;5079608;28;20067;-69
2022/07/08 03:57:33;;;;;;;12.93;4.18;;;13.90;99.90;;;;;;5078176;28;20041;-68
2022/07/08 03:59:59;;;;;;;9.57;3.45;;;13.90;99.90;;;;;;5078819;28;20043;-68
2022/07/08 04:02:24;;;;;;;6.50;3.30;;;14.00;99.90;;;;;;5078009;28;20039;-69
2022/07/08 04:04:51;;;;;;;7.20;3.40;;;14.00;99.90;;;;;;5078852;28;20055;-69
2022/07/08 04:07:16;;;;;;;7.43;3.20;;;14.00;99.90;;;;;;5079070;28;20304;-69
2022/07/08 04:09:43;;;;;;;8.50;3.28;;;14.00;99.90;;;;;;5078031;28;20112;-68
2022/07/08 04:12:09;;;;;;;9.60;4.10;;;13.90;99.90;;;;;;5078794;28;20048;-69
2022/07/08 04:14:35;;;;;;;10.35;3.75;;;14.00;99.90;;;;;;5078656;28;20044;-69
2022/07/08 04:17:01;;;;;;;13.10;4.25;;;14.00;99.90;;;;;;5077950;28;20387;-69
2022/07/08 04:19:27;;;;;;;8.18;3.75;;;13.90;99.90;;;;;;5078618;28;20028;-69
2022/07/08 04:21:52;;;;;;;10.63;3.88;;;13.90;99.90;;;;;;5078717;28;20029;-70
2022/07/08 04:24:18;;;;;;;9.52;3.25;;;13.90;99.90;;;;;;5061277;28;20033;-69
2022/07/08 04:26:44;;;;;;;13.15;3.50;;;13.90;99.90;;;;;;5078476;28;20433;-68
2022/07/08 04:29:10;;;;;;;9.77;3.72;;;13.80;99.90;;;;;;5078436;28;20036;-69
2022/07/08 04:31:36;;;;;;;10.05;3.05;;;13.90;99.90;;;;;;5078203;28;20037;-69
2022/07/08 04:34:02;;;;;;;9.23;3.70;;;13.90;99.90;;;;;;5077262;28;20043;-69
2022/07/08 04:36:28;;;;;;;11.15;3.60;;;14.00;99.90;;;;;;5060721;28;20021;-69
2022/07/08 04:38:54;;;;;;;13.50;3.67;;;14.10;99.90;;;;;;5078107;28;20024;-69
2022/07/08 04:41:19;;;;;;;5.45;3.17;;;14.20;99.90;;;;;;5077379;28;20024;-69
2022/07/08 04:43:46;;;;;;;12.18;3.65;;;14.30;99.90;;;;;;5078003;28;20037;-69
2022/07/08 04:46:12;;;;;;;10.50;3.25;;;14.40;99.90;;;;;;5077309;28;20032;-69
2022/07/08 04:48:39;;;;;;;14.63;3.72;;;14.30;99.90;;;;;;5077722;28;20024;-69
2022/07/08 04:51:05;;;;;;;10.00;3.53;;;14.20;99.90;;;;;;5078493;28;20393;-69
2022/07/08 04:53:31;;;;;;;7.95;3.72;;;14.20;99.90;;;;;;5077735;28;20036;-69
2022/07/08 04:55:56;;;;;;;11.93;3.72;;;14.30;99.90;;;;;;5060451;28;20052;-69
2022/07/08 04:58:22;;;;;;;8.80;3.63;;;14.40;99.90;;;;;;5077924;28;20048;-69
2022/07/08 05:00:48;;;;;;;11.65;3.45;;;14.40;99.90;;;;;;5078336;28;20111;-69
2022/07/08 05:03:14;;;;;;;13.27;3.80;;;14.40;99.90;;;;;;5077777;28;20182;-69
2022/07/08 05:05:40;;;;;;;12.38;3.35;;;14.40;99.90;;;;;;5077617;28;20103;-69
2022/07/08 05:08:06;;;;;;;7.43;3.22;;;14.40;99.90;;;;;;5076812;28;20036;-69
2022/07/08 05:10:31;;;;;;;10.95;3.60;;;14.50;99.90;;;;;;5077182;28;20292;-69
2022/07/08 05:12:58;;;;;;;9.02;3.75;;;14.50;99.90;;;;;;5077361;28;20129;-69
2022/07/08 05:15:25;;;;;;;11.90;3.67;;;14.50;99.90;;;;;;5059930;28;20039;-69
2022/07/08 05:17:53;;;;;;;9.45;3.42;;;14.50;99.90;;;;;;5076997;28;20102;-69
2022/07/08 05:20:20;;;;;;;9.70;3.90;;;14.50;99.90;;;;;;5076703;28;20350;-69
2022/07/08 05:22:46;;;;;;;11.23;3.85;;;14.60;99.90;;;;;;5077558;28;20028;-69
2022/07/08 05:25:13;;;;;;;9.23;3.45;;;14.70;99.90;;;;;;5076290;28;20304;-69
2022/07/08 05:27:40;;;;;;;8.13;3.78;;;14.70;99.90;;;;;;5077304;28;20074;-68
2022/07/08 05:30:08;;;;;;;10.82;4.00;;;15.00;99.90;;;;;;5077170;28;20300;-67
2022/07/08 05:32:35;;;;;;;8.82;3.35;;;15.20;99.90;;;;;;5076725;28;20274;-68
2022/07/08 05:35:02;;;;;;;9.02;3.17;;;15.50;99.90;;;;;;5077126;28;20032;-67
2022/07/08 05:37:28;;;;;;;12.60;3.15;;;15.80;99.90;;;;;;5076226;28;20024;-67
2022/07/08 05:39:54;;;;;;;9.20;3.35;;;15.80;99.90;;;;;;5077035;28;20052;-69
2022/07/08 05:42:20;;;;;;;9.88;3.30;;;15.90;99.90;;;;;;5059874;28;20126;-70
2022/07/08 05:44:46;;;;;;;12.15;2.63;;;16.10;99.90;;;;;;5076543;28;20025;-70
2022/07/08 05:47:13;;;;;;;10.65;2.72;;;16.40;99.90;;;;;;5076729;28;20076;-69
2022/07/08 05:49:43;;;;;;;10.05;2.95;;;16.60;99.90;;;;;;5076540;28;20041;-69
2022/07/08 05:52:09;;;;;;;10.23;2.30;;;16.60;99.90;;;;;;5077068;28;20308;-69
2022/07/08 05:54:35;;;;;;;7.85;2.60;;;16.60;99.90;;;;;;5077422;28;20055;-69
2022/07/08 05:57:01;;;;;;;9.30;2.22;;;16.70;99.90;;;;;;5076837;28;20048;-69
2022/07/08 05:59:29;;;;;;;9.45;1.70;;;16.70;99.90;;;;;;5076173;28;20032;-70
2022/07/08 06:01:55;;;;;;;13.15;2.47;;;16.60;99.90;;;;;;5077276;28;20082;-70
2022/07/08 06:04:21;;;;;;;10.05;2.10;;;16.60;99.90;;;;;;5076974;28;20035;-68
2022/07/08 06:06:47;;;;;;;7.43;2.03;;;16.50;99.90;;;;;;5076157;28;20032;-69
2022/07/08 06:09:13;;;;;;;8.82;1.98;;;16.50;99.90;;;;;;5076250;28;20035;-71
2022/07/08 06:11:39;;;;;;;10.65;1.83;;;16.30;99.90;;;;;;5077280;28;20369;-70
2022/07/08 06:14:05;;;;;;;11.07;1.77;;;16.30;99.90;;;;;;5076871;28;20103;-70
2022/07/08 06:16:30;;;;;;;10.23;2.13;;;16.20;99.90;;;;;;5076070;28;20051;-70
2022/07/08 06:18:56;;;;;;;13.95;2.30;;;16.30;99.90;;;;;;5076731;28;20347;-69
2022/07/08 06:21:22;;;;;;;10.27;1.88;;;16.40;99.90;;;;;;5076847;28;20033;-67
2022/07/08 06:23:48;;;;;;;12.80;1.88;;;16.40;99.90;;;;;;5076049;28;20086;-68
2022/07/08 06:26:14;;;;;;;10.55;2.20;;;16.50;99.90;;;;;;5076726;28;20292;-69
2022/07/08 06:28:39;;;;;;;10.25;2.30;;;16.60;99.90;;;;;;5076780;28;20289;-68
2022/07/08 06:31:06;;;;;;;8.93;1.80;;;16.60;99.90;;;;;;5076928;28;20036;-70
2022/07/08 06:33:32;;;;;;;10.45;2.13;;;16.70;99.90;;;;;;5076049;28;20029;-72
2022/07/08 06:35:58;;;;;;;14.00;2.67;;;16.70;99.90;;;;;;5076726;28;20024;-69
2022/07/08 06:38:24;;;;;;;13.82;2.50;;;16.60;99.90;;;;;;5076490;28;20063;-71
2022/07/08 06:40:50;;;;;;;12.80;2.53;;;16.70;99.90;;;;;;5076945;28;20029;-69
2022/07/08 06:43:16;;;;;;;11.70;2.05;;;16.80;99.90;;;;;;5076218;28;20020;-70
2022/07/08 06:45:44;;;;;;;12.95;2.75;;;17.00;99.90;;;;;;5076326;28;20032;-70
2022/07/08 06:48:10;;;;;;;7.40;1.90;;;17.20;99.90;;;;;;5075893;28;20099;-62
2022/07/08 06:50:37;;;;;;;10.88;2.72;;;17.20;99.90;;;;;;5077394;28;20408;-69
2022/07/08 06:53:02;;;;;;;13.38;2.70;;;17.20;99.90;;;;;;5076631;28;20331;-68
2022/07/08 06:55:28;;;;;;;13.15;2.35;;;17.10;99.90;;;;;;5075708;28;20113;-68
2022/07/08 06:57:54;;;;;;;9.00;2.42;;;17.00;99.90;;;;;;5076518;28;20028;-70
2022/07/08 07:00:22;;;;;;;17.73;3.40;;;17.00;99.90;;;;;;5076827;28;20036;-71
2022/07/08 07:02:48;;;;;;;7.45;2.53;;;17.00;99.90;;;;;;5059600;28;20055;-70
2022/07/08 07:05:14;;;;;;;12.30;2.92;;;17.00;99.90;;;;;;5076424;28;20027;-71
2022/07/08 07:07:40;;;;;;;9.93;3.03;;;17.10;99.90;;;;;;5077414;28;20048;-70
2022/07/08 07:10:06;;;;;;;12.23;2.70;;;17.10;99.90;;;;;;5076876;28;20056;-69
2022/07/08 07:12:32;;;;;;;13.02;3.28;;;17.20;99.90;;;;;;5080210;28;20101;-69
2022/07/08 07:14:58;;;;;;;10.68;3.30;;;17.30;99.90;;;;;;5079119;28;20403;-69
2022/07/08 07:17:24;;;;;;;8.23;2.50;;;17.40;99.90;;;;;;5079093;28;20058;-69
2022/07/08 07:19:50;;;;;;;18.45;2.88;;;17.40;99.90;;;;;;5062782;28;20137;-69
2022/07/08 07:22:16;;;;;;;14.68;3.15;;;17.50;99.90;;;;;;5079533;28;20305;-70
2022/07/08 07:24:42;;;;;;;15.88;3.20;;;17.70;99.90;;;;;;5080317;28;20025;-69
2022/07/08 07:27:08;;;;;;;20.13;3.03;;;17.90;99.90;;;;;;5062559;28;20044;-70
2022/07/08 07:29:34;;;;;;;12.30;3.25;;;18.00;99.90;;;;;;5079099;28;20025;-70
2022/07/08 07:32:00;;;;;;;13.48;3.67;;;18.00;99.90;;;;;;5080575;28;20062;-70
2022/07/08 07:34:26;;;;;;;15.85;3.58;;;18.00;99.90;;;;;;5079802;28;20045;-70
2022/07/08 07:36:52;;;;;;;7.93;3.08;;;18.00;99.90;;;;;;5078938;28;20299;-70
2022/07/08 07:39:18;;;;;;;11.13;3.33;;;18.10;99.90;;;;;;5079208;28;20028;-69
2022/07/08 07:41:43;;;;;;;10.05;2.72;;;18.20;99.90;;;;;;5079716;28;20032;-70
2022/07/08 07:44:09;;;;;;;16.95;3.10;;;18.20;99.90;;;;;;5079745;28;20030;-70
2022/07/08 07:46:35;;;;;;;10.70;2.83;;;18.20;99.90;;;;;;5079533;28;20047;-67
2022/07/08 07:49:02;;;;;;;9.65;3.22;;;18.40;99.90;;;;;;5079430;28;20056;-63
2022/07/08 07:51:28;;;;;;;7.82;2.67;;;18.60;99.90;;;;;;5079361;28;20337;-63
2022/07/08 07:53:54;;;;;;;13.25;3.20;;;18.60;99.90;;;;;;5079309;28;20033;-63
2022/07/08 07:56:20;;;;;;;9.23;2.85;;;18.70;99.90;;;;;;5079127;28;20049;-65
2022/07/08 07:58:46;;;;;;;15.43;3.38;;;18.60;99.90;;;;;;5079172;28;20407;-65
2022/07/08 08:01:12;;;;;;;10.23;3.00;;;18.60;99.90;;;;;;5078999;28;20028;-64
2022/07/08 08:03:38;;;;;;;11.77;3.08;;;18.50;99.90;;;;;;5079208;28;20036;-68
2022/07/08 08:06:04;;;;;;;13.35;3.33;;;18.50;99.90;;;;;;5079597;28;20032;-65
2022/07/08 08:08:33;;;;;;;10.73;3.28;;;18.50;99.90;;;;;;5079307;28;20040;-65
2022/07/08 08:11:00;;;;;;;14.35;3.15;;;18.30;99.90;;;;;;5078934;28;20039;-63
2022/07/08 08:13:27;;;;;;;12.32;3.25;;;18.50;99.90;;;;;;5079184;28;20352;-64
2022/07/08 08:15:53;;;;;;;6.57;2.75;;;18.80;99.90;;;;;;5078826;28;20043;-64
2022/07/08 08:18:19;;;;;;;10.38;2.80;;;19.00;99.90;;;;;;5078633;28;20040;-63
2022/07/08 08:20:45;;;;;;;11.85;3.35;;;19.10;99.90;;;;;;5078839;28;20028;-63
2022/07/08 08:23:11;;;;;;;10.63;2.75;;;19.30;99.90;;;;;;5077709;28;20028;-63
2022/07/08 08:25:37;;;;;;;9.85;3.30;;;19.40;99.90;;;;;;5078614;28;20025;-63
2022/07/08 08:28:04;;;;;;;12.93;2.97;;;19.50;99.90;;;;;;5078533;28;20024;-63
2022/07/08 08:30:30;;;;;;;10.27;2.90;;;19.50;99.90;;;;;;5078602;28;20028;-65
2022/07/08 08:32:56;;;;;;;10.10;2.80;;;19.40;99.90;;;;;;5079090;28;20037;-66
2022/07/08 08:35:22;;;;;;;9.55;2.83;;;19.30;99.90;;;;;;5077843;28;20396;-63
2022/07/08 08:37:48;;;;;;;11.18;3.25;;;19.50;99.90;;;;;;5078272;28;20115;-62
2022/07/08 08:40:14;;;;;;;9.68;3.22;;;19.50;99.90;;;;;;5077620;28;20025;-63
2022/07/08 08:42:42;;;;;;;13.70;3.25;;;19.10;99.90;;;;;;5078890;28;20028;-63
2022/07/08 08:45:09;;;;;;;11.20;3.28;;;19.20;99.90;;;;;;5060727;28;20086;-63
2022/07/08 08:47:36;;;;;;;7.43;2.75;;;19.30;99.90;;;;;;5078245;28;20119;-62
2022/07/08 08:52:51;;;;;;;7.45;2.47;;;19.70;99.90;;;;;;5078591;28;20028;-66
2022/07/08 08:55:33;;;;;;;11.05;2.97;;;19.50;99.90;;;;;;5077929;28;20044;-63
2022/07/08 08:58:04;;;;;;;9.83;2.57;;;19.90;99.90;;;;;;5077866;28;20046;-63
2022/07/08 09:00:31;;;;;;;9.15;2.42;;;19.90;99.90;;;;;;5078060;28;20300;-62
2022/07/08 09:02:58;;;;;;;16.27;3.28;;;20.00;99.90;;;;;;5077942;28;20024;-62
2022/07/08 09:05:25;;;;;;;11.90;3.30;;;20.20;99.90;;;;;;5077999;28;20112;-63
2022/07/08 09:07:51;;;;;;;9.57;2.70;;;20.40;99.90;;;;;;5078325;28;20412;-62
2022/07/08 09:10:18;;;;;;;9.80;2.92;;;20.30;99.90;;;;;;5077790;28;20036;-62
2022/07/08 09:13:06;;;;;;;14.05;2.50;;;20.40;99.90;;;;;;5077975;28;20357;-63
2022/07/08 09:15:58;;;;;;;7.65;2.38;;;20.20;99.90;;;;;;5077678;28;20300;-62
2022/07/08 09:18:35;;;;;;;6.32;2.25;;;20.10;99.90;;;;;;5077380;28;20393;-62
2022/07/08 09:21:02;;;;;;;10.63;2.42;;;20.50;99.90;;;;;;5077629;28;20121;-62
2022/07/08 09:23:31;;;;;;;7.95;2.30;;;20.70;99.90;;;;;;5077929;28;20028;-61
2022/07/08 09:26:00;;;;;;;12.30;2.33;;;20.80;99.90;;;;;;5077682;28;20467;-61
2022/07/08 09:28:40;;;;;;;10.75;2.10;;;20.90;99.90;;;;;;5077411;28;20036;-62
2022/07/08 09:31:12;;;;;;;9.50;2.03;;;21.10;99.90;;;;;;5077420;28;20059;-63
2022/07/08 09:33:39;;;;;;;9.73;2.47;;;21.10;99.90;;;;;;5077137;28;20304;-62
2022/07/08 09:36:08;;;;;;;10.07;2.00;;;20.90;99.90;;;;;;5077202;28;20020;-63
2022/07/08 09:38:35;;;;;;;10.48;2.03;;;21.10;99.90;;;;;;5077559;28;20068;-62
2022/07/08 09:41:09;;;;;;;8.13;2.10;;;20.90;99.90;;;;;;5077165;28;20028;-63
2022/07/08 09:43:49;;;;;;;10.13;2.13;;;20.90;99.90;;;;;;5077236;28;20033;-62
2022/07/08 09:46:16;;;;;;;5.70;1.58;;;21.00;99.90;;;;;;5077547;28;20078;-63
2022/07/08 09:48:42;;;;;;;8.55;1.90;;;21.30;99.90;;;;;;5077190;28;20032;-62
2022/07/08 09:51:08;;;;;;;8.48;1.95;;;21.60;99.90;;;;;;5077097;28;20032;-63
2022/07/08 09:53:40;;;;;;;8.60;1.83;;;21.30;99.90;;;;;;5076992;28;20112;-63
2022/07/08 09:56:07;;;;;;;9.85;2.08;;;21.40;99.90;;;;;;5076254;28;20041;-64
2022/07/08 09:58:34;;;;;;;7.13;1.98;;;21.50;99.90;;;;;;5077310;28;20054;-63
2022/07/08 10:01:01;;;;;;;9.85;1.90;;;21.50;99.90;;;;;;5077616;28;20025;-66
2022/07/08 10:03:29;;;;;;;7.15;1.92;;;21.50;99.90;;;;;;5076881;28;20037;-63
2022/07/08 10:05:55;;;;;;;8.13;1.65;;;21.80;99.90;;;;;;5077043;28;20180;-64
2022/07/08 10:08:23;;;;;;;11.40;1.88;;;22.00;99.90;;;;;;5076095;28;20091;-63
2022/07/08 10:10:49;;;;;;;5.68;1.50;;;22.20;99.90;;;;;;5076931;28;20024;-64
2022/07/08 10:13:18;;;;;;;10.45;2.00;;;22.40;99.90;;;;;;5076462;28;20039;-65
2022/07/08 10:15:46;;;;;;;9.25;1.98;;;22.60;99.90;;;;;;5076916;28;20479;-65
2022/07/08 10:18:16;;;;;;;7.15;1.60;;;22.50;99.90;;;;;;5076699;28;20036;-63
2022/07/08 10:20:47;;;;;;;10.25;2.50;;;22.30;99.90;;;;;;5076127;28;20115;-65
2022/07/08 10:23:34;;;;;;;10.32;2.03;;;22.30;99.90;;;;;;5076869;28;20032;-64
2022/07/08 10:26:02;;;;;;;6.07;1.88;;;21.60;99.90;;;;;;5077027;28;20040;-63
2022/07/08 10:28:39;;;;;;;6.40;1.45;;;21.70;99.90;;;;;;5076708;28;20086;-63
2022/07/08 10:31:24;;;;;;;8.43;1.50;;;22.10;99.90;;;;;;5077222;28;20129;-62
2022/07/08 10:33:58;;;;;;;8.93;1.77;;;22.60;99.90;;;;;;5076684;28;20040;-66
2022/07/08 10:36:24;;;;;;;5.93;1.60;;;22.90;99.90;;;;;;5077170;28;20129;-65
2022/07/08 10:38:52;;;;;;;6.25;1.60;;;22.80;99.90;;;;;;5076992;28;20387;-64
2022/07/08 10:41:20;;;;;;;5.60;1.52;;;22.50;99.90;;;;;;5077000;28;20032;-61
2022/07/08 10:43:51;;;;;;;7.00;1.70;;;22.90;99.90;;;;;;5076617;28;20079;-61
2022/07/08 10:46:17;;;;;;;5.13;1.70;;;23.10;99.90;;;;;;5079507;28;20035;-60
2022/07/08 10:48:51;;;;;;;4.32;1.58;;;23.20;99.90;;;;;;5079713;28;20032;-62
2022/07/08 10:51:20;;;;;;;8.95;1.75;;;23.10;99.90;;;;;;5080834;28;20489;-60
2022/07/08 10:53:53;;;;;;;8.00;1.85;;;23.50;99.90;;;;;;5080390;28;20075;-60
2022/07/08 10:56:44;;;;;;;5.28;1.52;;;23.80;99.90;;;;;;5080247;28;20040;-60
2022/07/08 10:59:20;;;;;;;7.63;1.73;;;24.10;99.90;;;;;;5080664;28;20069;-61
2022/07/08 11:02:11;;;;;;;6.60;1.80;;;24.10;99.90;;;;;;5080857;28;20043;-61
2022/07/08 11:04:42;;;;;;;7.90;1.80;;;23.70;99.90;;;;;;5080275;28;20047;-63
2022/07/08 11:07:17;;;;;;;5.15;1.65;;;23.70;99.90;;;;;;5080814;28;20115;-63
2022/07/08 11:09:50;;;;;;;4.70;1.23;;;24.20;99.90;;;;;;5080110;28;20028;-64
2022/07/08 11:12:20;;;;;;;6.85;1.45;;;24.80;99.90;;;;;;5080206;28;20027;-63
2022/07/08 11:14:48;;;;;;;8.38;2.00;;;26.20;99.90;;;;;;5080051;28;20040;-63
2022/07/08 11:17:15;;;;;;;3.83;1.50;;;27.60;99.90;;;;;;5079966;28;20041;-63
2022/07/08 11:19:42;;;;;;;6.38;1.80;;;28.10;99.90;;;;;;5080041;28;20028;-63
2022/07/08 11:22:09;;;;;;;7.70;1.45;;;29.60;99.90;;;;;;5080446;28;20055;-65
2022/07/08 11:24:39;;;;;;;5.07;1.45;;;30.50;99.90;;;;;;5079867;28;20115;-65
2022/07/08 11:27:06;;;;;;;3.15;1.20;;;31.00;99.90;;;;;;5079887;28;20316;-65
2022/07/08 11:29:32;;;;;;;7.57;1.80;;;31.70;99.90;;;;;;5079746;28;20380;-63
2022/07/08 11:31:59;;;;;;;4.80;1.48;;;32.00;98.10;;;;;;5079822;28;20028;-63
2022/07/08 11:34:25;;;;;;;5.38;1.67;;;32.50;96.20;;;;;;5079826;28;20304;-61
2022/07/08 11:36:59;;;;;;;4.25;1.52;;;33.10;93.60;;;;;;5079508;28;20037;-61
2022/07/08 11:39:25;;;;;;;4.55;1.42;;;33.00;92.30;;;;;;5079591;28;20032;-63
2022/07/08 11:41:52;;;;;;;4.43;1.20;;;33.80;90.50;;;;;;5079588;28;20100;-64
2022/07/08 11:44:20;;;;;;;5.63;1.50;;;34.10;84.10;;;;;;5079542;28;20037;-63
2022/07/08 11:46:48;;;;;;;4.65;1.33;;;34.40;82.00;;;;;;5079734;28;20052;-64
2022/07/08 11:49:14;;;;;;;5.45;1.42;;;34.70;80.10;;;;;;5079342;28;20111;-65
2022/07/08 11:51:52;;;;;;;4.07;1.23;;;33.20;79.40;;;;;;5079379;28;20067;-66
2022/07/08 11:54:28;;;;;;;3.13;0.88;;;30.80;86.90;;;;;;5079106;28;20415;-61
2022/07/08 11:56:59;;;;;;;5.03;1.40;;;32.50;86.50;;;;;;5077459;28;20075;-60
2022/07/08 11:59:26;;;;;;;7.95;1.42;;;32.90;82.00;;;;;;5079137;28;20270;-62
2022/07/08 12:01:53;;;;;;;6.57;1.30;;;33.30;82.00;;;;;;5079161;28;20055;-61
2022/07/08 12:04:19;;;;;;;3.83;1.30;;;34.30;79.20;;;;;;5079120;28;20029;-62
2022/07/08 12:06:52;;;;;;;3.70;1.10;;;35.80;73.70;;;;;;5079060;28;20036;-62
2022/07/08 12:09:21;;;;;;;5.28;1.45;;;36.20;68.70;;;;;;5079213;28;20029;-63
2022/07/08 12:11:49;;;;;;;4.97;1.17;;;36.20;68.20;;;;;;5078941;28;20085;-60
2022/07/08 12:14:16;;;;;;;2.53;0.90;;;35.00;66.00;;;;;;5078898;28;20036;-63
2022/07/08 12:16:50;;;;;;;3.10;1.10;;;34.70;69.20;;;;;;5079357;28;20036;-64
2022/07/08 12:19:34;;;;;;;3.40;1.02;;;36.00;65.60;;;;;;5078829;28;20037;-63
2022/07/08 12:22:05;;;;;;;6.13;1.20;;;35.80;64.40;;;;;;5079465;28;20028;-61
2022/07/08 12:24:35;;;;;;;5.20;1.20;;;34.70;66.40;;;;;;5078895;28;20032;-64
2022/07/08 12:27:07;;;;;;;4.50;1.10;;;33.40;67.20;;;;;;5061621;28;20288;-63
2022/07/08 12:29:38;;;;;;;3.35;1.13;;;33.40;69.50;;;;;;5078041;28;20090;-63
2022/07/08 12:32:04;;;;;;;3.75;1.23;;;34.50;68.80;;;;;;5078946;28;20116;-64
2022/07/08 12:34:30;;;;;;;5.68;1.38;;;35.10;66.40;;;;;;5078639;28;20044;-64
2022/07/08 12:37:21;;;;;;;5.03;1.15;;;35.30;65.60;;;;;;5077789;28;20040;-63
2022/07/08 12:39:47;;;;;;;2.88;0.93;;;35.20;66.00;;;;;;5078141;28;20112;-64
2022/07/08 12:42:22;;;;;;;3.00;1.10;;;34.90;65.40;;;;;;5078390;28;20028;-63
2022/07/08 12:44:49;;;;;;;3.10;1.20;;;34.40;66.80;;;;;;5078236;28;20037;-61
2022/07/08 12:47:15;;;;;;;4.90;1.00;;;35.50;64.70;;;;;;5078211;28;20025;-64
2022/07/08 12:49:43;;;;;;;4.13;1.10;;;36.60;62.70;;;;;;5078412;28;20062;-61